Weather at Żar Airfield

Public forecast

Using degrees Celsius for public forecast. Weather courtesy of forecast.io.

Closest aviation weather report (METAR) to Żar Airfield

Report is more than 6 hours old.

Closest report is Kraków John Paul II International Airport, 28.6 nm (53.0 km) NE. Retrieved 2022/09/17 19:00 UTC (17 days ago):

EPKK 171900Z 27007KT 9999 BKN063 11/09 Q1005

Closest aviation forecast (TAF) to Żar Airfield

Forecast is more than 12 hours old.

Closest forecast is Kraków John Paul II International Airport, 28.6 nm (53.0 km) NE. Retrieved 2022/09/17 18:37 UTC (17 days ago):

TAF EPKK 171730Z 1718/1818 23006KT CAVOK TEMPO 1718/1803 4000 SHRA BKN025CB TEMPO 1806/1811 27015G25KT TEMPO 1811/1818 27018G32KT 4000 SHRA BKN030CB